Time;durP1;ratioP1;P1;durP2;ratioP2;P2;SDS_P1;SDS_P2;PMS_P1;PMS_P2;Temp;Humidity;BMP_temperature;BMP_pressure;BME280_temperature;BME280_humidity;BME280_pressure;Samples;Min_cycle;Max_cycle;Signal;HPM_P1;HPM_P2
2022/12/01 00:00:29;;;;;;;245.18;92.18;;;5.40;99.90;;;;;;4986018;28;20412;-81
2022/12/01 00:02:55;;;;;;;214.48;86.85;;;5.40;99.90;;;;;;4987029;28;20509;-81
2022/12/01 00:05:21;;;;;;;247.93;93.45;;;5.40;99.90;;;;;;4981562;28;20046;-81
2022/12/01 00:07:49;;;;;;;236.52;89.72;;;5.50;99.90;;;;;;4988098;28;20046;-81
2022/12/01 00:10:27;;;;;;;235.32;89.32;;;5.40;99.90;;;;;;4983614;28;20042;-81
2022/12/01 00:12:53;;;;;;;229.98;94.40;;;5.50;99.90;;;;;;4983919;28;20057;-82
2022/12/01 00:15:19;;;;;;;213.40;90.55;;;5.50;99.90;;;;;;4988293;28;20054;-81
2022/12/01 00:17:46;;;;;;;211.07;91.05;;;5.40;99.90;;;;;;4987540;28;20043;-81
2022/12/01 00:20:13;;;;;;;227.93;84.53;;;5.50;99.90;;;;;;4987931;28;20049;-81
2022/12/01 00:22:45;;;;;;;207.45;87.15;;;5.50;99.90;;;;;;4988314;28;20075;-82
2022/12/01 00:25:12;;;;;;;205.45;84.38;;;5.50;99.90;;;;;;4987509;28;20116;-81
2022/12/01 00:27:38;;;;;;;214.32;90.40;;;5.50;99.90;;;;;;4984159;28;20096;-81
2022/12/01 00:30:05;;;;;;;242.65;91.28;;;5.50;99.90;;;;;;4987729;28;20046;-82
2022/12/01 00:32:31;;;;;;;217.52;88.18;;;5.50;99.90;;;;;;4988034;28;20061;-81
2022/12/01 00:34:57;;;;;;;217.65;86.35;;;5.50;99.90;;;;;;4986439;28;20053;-81
2022/12/01 00:37:23;;;;;;;212.55;88.47;;;5.50;99.90;;;;;;4988164;28;20043;-81
2022/12/01 00:39:49;;;;;;;211.75;87.55;;;5.50;99.90;;;;;;4982162;28;20082;-81
2022/12/01 00:42:14;;;;;;;237.40;90.35;;;5.50;99.90;;;;;;4988137;28;20081;-82
2022/12/01 00:44:40;;;;;;;232.50;89.35;;;5.50;99.90;;;;;;4980124;28;20054;-82
2022/12/01 00:47:06;;;;;;;204.23;85.78;;;5.50;99.90;;;;;;4987907;28;20046;-82
2022/12/01 00:49:31;;;;;;;220.20;84.05;;;5.50;99.90;;;;;;4987706;28;20093;-81
2022/12/01 00:51:57;;;;;;;214.45;86.47;;;5.50;99.90;;;;;;4987577;28;20062;-82
2022/12/01 00:54:23;;;;;;;209.55;87.72;;;5.50;99.90;;;;;;4987761;28;22148;-81
2022/12/01 00:56:48;;;;;;;205.38;87.65;;;5.50;99.90;;;;;;4987932;28;20391;-82
2022/12/01 00:59:14;;;;;;;198.93;83.70;;;5.50;99.90;;;;;;4986886;28;20043;-81
2022/12/01 01:01:40;;;;;;;206.55;84.90;;;5.50;99.90;;;;;;4982771;28;20035;-81
2022/12/01 01:04:06;;;;;;;198.35;83.88;;;5.50;99.90;;;;;;4988036;28;20144;-82
2022/12/01 01:06:32;;;;;;;204.05;87.47;;;5.50;99.90;;;;;;4990571;28;20212;-82
2022/12/01 01:08:58;;;;;;;201.25;87.07;;;5.50;99.90;;;;;;4990782;28;20689;-81
2022/12/01 01:11:24;;;;;;;189.35;86.25;;;5.50;99.90;;;;;;4992400;28;20045;-82
2022/12/01 01:13:50;;;;;;;116.30;39.17;;;5.50;99.90;;;;;;4976042;28;20061;-81
2022/12/01 01:16:19;;;;;;;197.25;85.45;;;5.40;99.90;;;;;;4993296;28;20034;-83
2022/12/01 01:18:46;;;;;;;207.32;87.65;;;5.40;99.90;;;;;;4981564;28;20050;-82
2022/12/01 01:21:16;;;;;;;203.20;88.88;;;5.40;99.90;;;;;;4988148;28;20046;-81
2022/12/01 01:23:42;;;;;;;210.25;88.38;;;5.40;99.90;;;;;;4982156;28;20790;-82
2022/12/01 01:26:15;;;;;;;205.68;83.88;;;5.50;99.90;;;;;;4989693;28;20050;-82
2022/12/01 01:28:41;;;;;;;186.77;84.75;;;5.50;99.90;;;;;;4996031;28;20081;-82
2022/12/01 01:31:09;;;;;;;209.50;90.05;;;5.50;99.90;;;;;;4986381;28;20081;-82
2022/12/01 01:33:35;;;;;;;197.10;89.07;;;5.40;99.90;;;;;;5006941;28;20057;-81
2022/12/01 01:36:02;;;;;;;188.95;82.10;;;5.50;99.90;;;;;;4991576;28;20054;-81
2022/12/01 01:38:28;;;;;;;204.02;87.10;;;5.50;99.90;;;;;;4987865;28;20049;-81
2022/12/01 01:40:54;;;;;;;200.30;87.05;;;5.40;99.90;;;;;;4990451;28;20042;-81
2022/12/01 01:43:57;;;;;;;186.98;84.60;;;5.50;99.90;;;;;;4990572;28;20046;-81
2022/12/01 01:46:33;;;;;;;191.48;83.22;;;5.50;99.90;;;;;;4954484;28;20086;-81
2022/12/01 01:49:09;;;;;;;199.10;85.68;;;5.40;99.90;;;;;;4982332;28;20345;-82
2022/12/01 01:51:40;;;;;;;191.55;84.45;;;5.50;99.90;;;;;;4983650;28;20096;-81
2022/12/01 01:54:16;;;;;;;197.65;84.80;;;5.50;99.90;;;;;;4988335;28;20058;-81
2022/12/01 01:56:46;;;;;;;186.40;86.53;;;5.40;99.90;;;;;;4990802;28;20042;-81
2022/12/01 01:59:16;;;;;;;192.65;86.88;;;5.50;99.90;;;;;;4989271;28;20053;-81
2022/12/01 02:01:41;;;;;;;197.55;85.30;;;5.40;99.90;;;;;;4991079;28;20546;-81
2022/12/01 02:04:08;;;;;;;184.60;83.85;;;5.40;99.90;;;;;;4989589;28;20050;-81
2022/12/01 02:06:33;;;;;;;184.75;84.25;;;5.40;99.90;;;;;;5007693;28;20058;-81
2022/12/01 02:08:59;;;;;;;196.55;88.70;;;5.50;99.90;;;;;;4990045;28;20801;-81
2022/12/01 02:11:52;;;;;;;201.77;84.68;;;5.50;99.90;;;;;;4985582;28;20045;-81
2022/12/01 02:14:48;;;;;;;192.15;85.00;;;5.50;99.90;;;;;;4953155;28;20050;-81
2022/12/01 02:17:19;;;;;;;200.38;87.57;;;5.40;99.90;;;;;;4982884;28;20053;-82
2022/12/01 02:20:13;;;;;;;186.63;84.63;;;5.40;99.90;;;;;;4987675;28;20050;-81
2022/12/01 02:23:02;;;;;;;203.30;86.53;;;5.40;99.90;;;;;;4989738;28;20192;-81
2022/12/01 02:26:13;;;;;;;186.73;89.22;;;5.40;99.90;;;;;;4989464;28;20092;-81
2022/12/01 02:29:32;;;;;;;199.18;84.05;;;5.40;99.90;;;;;;4984989;28;20086;-82
2022/12/01 02:32:16;;;;;;;203.00;87.25;;;5.40;99.90;;;;;;5001662;28;20046;-81
2022/12/01 02:35:17;;;;;;;187.02;85.57;;;5.40;99.90;;;;;;4988981;28;20641;-81
2022/12/01 02:38:15;;;;;;;197.88;84.75;;;5.40;99.90;;;;;;4958175;28;20093;-81
2022/12/01 02:40:59;;;;;;;194.90;83.45;;;5.40;99.90;;;;;;4988470;28;20062;-82
2022/12/01 02:43:35;;;;;;;188.73;86.03;;;5.40;99.90;;;;;;4989334;28;20055;-81
2022/12/01 02:46:33;;;;;;;180.80;84.90;;;5.40;99.90;;;;;;4987825;28;20058;-81
2022/12/01 02:49:04;;;;;;;194.57;84.40;;;5.40;99.90;;;;;;4974276;28;20065;-81
2022/12/01 02:51:33;;;;;;;195.88;86.00;;;5.40;99.90;;;;;;4989438;28;20069;-81
2022/12/01 02:54:00;;;;;;;188.80;86.07;;;5.40;99.90;;;;;;5004160;28;20081;-81
2022/12/01 02:56:26;;;;;;;187.95;90.63;;;5.40;99.90;;;;;;4987779;28;20435;-81
2022/12/01 02:58:51;;;;;;;197.45;87.68;;;5.40;99.90;;;;;;4988584;28;20100;-81
2022/12/01 03:01:29;;;;;;;201.18;91.63;;;5.40;99.90;;;;;;4985448;28;20848;-81
2022/12/01 03:04:07;;;;;;;183.13;84.28;;;5.40;99.90;;;;;;4983765;28;20050;-81
2022/12/01 03:07:04;;;;;;;212.65;88.78;;;5.40;99.90;;;;;;4984738;28;20050;-81
2022/12/01 03:10:03;;;;;;;199.02;85.88;;;5.40;99.90;;;;;;4981491;28;20133;-81
2022/12/01 03:12:39;;;;;;;188.18;85.15;;;5.40;99.90;;;;;;4987356;28;20041;-81
2022/12/01 03:15:20;;;;;;;196.48;88.47;;;5.40;99.90;;;;;;4987553;28;20051;-81
2022/12/01 03:18:00;;;;;;;203.48;91.03;;;5.40;99.90;;;;;;4988005;28;20054;-82
2022/12/01 03:20:44;;;;;;;201.75;88.72;;;5.40;99.90;;;;;;4996568;28;20829;-81
2022/12/01 03:23:15;;;;;;;192.82;91.80;;;5.40;99.90;;;;;;4988145;28;20050;-81
2022/12/01 03:25:43;;;;;;;192.57;87.72;;;5.40;99.90;;;;;;4986607;28;20053;-81
2022/12/01 03:28:13;;;;;;;202.75;92.22;;;5.40;99.90;;;;;;4987702;28;20042;-81
2022/12/01 03:30:41;;;;;;;211.02;89.90;;;5.40;99.90;;;;;;4986498;28;20057;-82
2022/12/01 03:33:11;;;;;;;204.50;92.50;;;5.40;99.90;;;;;;4988274;28;20134;-82
2022/12/01 03:35:53;;;;;;;201.38;91.60;;;5.40;99.90;;;;;;4981728;28;20052;-82
2022/12/01 03:38:23;;;;;;;216.18;95.00;;;5.40;99.90;;;;;;4985156;28;20043;-82
2022/12/01 03:40:52;;;;;;;204.68;89.88;;;5.40;99.90;;;;;;4985986;28;20093;-82
2022/12/01 03:43:27;;;;;;;203.85;91.68;;;5.40;99.90;;;;;;5001464;28;20206;-82
2022/12/01 03:46:11;;;;;;;202.65;90.40;;;5.40;99.90;;;;;;4986366;28;20042;-82
2022/12/01 03:48:38;;;;;;;200.23;93.82;;;5.40;99.90;;;;;;4969721;28;20034;-82
2022/12/01 03:51:28;;;;;;;196.90;89.13;;;5.40;99.90;;;;;;5000813;28;20423;-82
2022/12/01 03:54:06;;;;;;;195.80;89.32;;;5.40;99.90;;;;;;4987739;28;20053;-83
2022/12/01 03:56:42;;;;;;;188.45;89.10;;;5.30;99.90;;;;;;4986312;28;20054;-82
2022/12/01 03:59:12;;;;;;;186.55;90.95;;;5.30;99.90;;;;;;4986681;28;20089;-82
2022/12/01 04:01:38;;;;;;;202.48;88.57;;;5.40;99.90;;;;;;4989004;28;20558;-82
2022/12/01 04:04:06;;;;;;;199.95;90.35;;;5.30;99.90;;;;;;4987210;28;20054;-83
2022/12/01 04:06:34;;;;;;;195.73;91.47;;;5.30;99.90;;;;;;4971394;28;20082;-82
2022/12/01 04:09:02;;;;;;;176.95;86.13;;;5.30;99.90;;;;;;4987500;28;20773;-82
2022/12/01 04:14:12;;;;;;;210.52;92.60;;;5.30;99.90;;;;;;4983308;28;20483;-83
2022/12/01 04:16:37;;;;;;;201.18;88.45;;;5.30;99.90;;;;;;4987999;28;20133;-82
2022/12/01 04:19:03;;;;;;;201.15;91.30;;;5.30;99.90;;;;;;4987866;28;20054;-82
2022/12/01 04:21:29;;;;;;;218.18;95.78;;;5.30;99.90;;;;;;4987220;28;20514;-82
2022/12/01 04:24:00;;;;;;;197.90;88.40;;;5.30;99.90;;;;;;4986971;28;20042;-82
2022/12/01 04:26:34;;;;;;;198.45;92.18;;;5.30;99.90;;;;;;4988553;28;20044;-82
2022/12/01 04:29:07;;;;;;;206.00;90.40;;;5.30;99.90;;;;;;4985978;28;20144;-82
2022/12/01 04:31:33;;;;;;;206.52;92.00;;;5.30;99.90;;;;;;4987331;28;20476;-82
2022/12/01 04:33:59;;;;;;;216.30;92.47;;;5.30;99.90;;;;;;4987102;28;20121;-82
2022/12/01 04:36:28;;;;;;;209.38;93.03;;;5.30;99.90;;;;;;5002946;28;20046;-82
2022/12/01 04:38:54;;;;;;;200.57;90.82;;;5.30;99.90;;;;;;4986355;28;20047;-82
2022/12/01 04:41:20;;;;;;;207.80;92.88;;;5.30;99.90;;;;;;4988321;28;20060;-82
2022/12/01 04:43:45;;;;;;;213.90;94.90;;;5.30;99.90;;;;;;4987279;28;20042;-82
2022/12/01 04:46:11;;;;;;;207.20;94.18;;;5.30;99.90;;;;;;4983447;28;20132;-82
2022/12/01 04:48:38;;;;;;;219.27;91.13;;;5.30;99.90;;;;;;4987049;28;20189;-82
2022/12/01 04:51:05;;;;;;;217.35;92.05;;;5.30;99.90;;;;;;5003552;28;20062;-82
2022/12/01 04:53:30;;;;;;;201.65;91.30;;;5.30;99.90;;;;;;5003100;28;20057;-82
2022/12/01 04:55:58;;;;;;;230.93;96.40;;;5.30;99.90;;;;;;4987224;28;20050;-82
2022/12/01 04:58:24;;;;;;;210.05;96.25;;;5.30;99.90;;;;;;4986626;28;20169;-82
2022/12/01 05:00:50;;;;;;;211.13;94.43;;;5.30;99.90;;;;;;5001307;28;20054;-82
2022/12/01 05:03:16;;;;;;;214.95;92.68;;;5.30;99.90;;;;;;4993622;28;20061;-82
2022/12/01 05:05:42;;;;;;;222.10;96.22;;;5.30;99.90;;;;;;4989644;28;20518;-83
2022/12/01 05:08:07;;;;;;;206.80;93.82;;;5.30;99.90;;;;;;4989809;28;20054;-82
2022/12/01 05:10:37;;;;;;;208.38;92.97;;;5.30;99.90;;;;;;4989550;28;20054;-83
2022/12/01 05:13:04;;;;;;;226.60;97.18;;;5.30;99.90;;;;;;4989461;28;20069;-82
2022/12/01 05:15:31;;;;;;;199.20;86.93;;;5.30;99.90;;;;;;4990106;28;20050;-82
2022/12/01 05:17:58;;;;;;;227.82;96.78;;;5.20;99.90;;;;;;4988669;28;20375;-82
2022/12/01 05:23:14;;;;;;;215.68;96.10;;;5.30;99.90;;;;;;4990783;28;20436;-83
2022/12/01 05:25:42;;;;;;;224.80;95.28;;;5.30;99.90;;;;;;4989960;28;20061;-82
2022/12/01 05:28:07;;;;;;;218.07;98.85;;;5.30;99.90;;;;;;4989630;28;20042;-82
2022/12/01 05:30:33;;;;;;;238.35;100.10;;;5.30;99.90;;;;;;4973403;28;20108;-82
2022/12/01 05:32:59;;;;;;;245.20;102.65;;;5.30;99.90;;;;;;4989866;28;20297;-82
2022/12/01 05:35:25;;;;;;;235.73;97.40;;;5.30;99.90;;;;;;4987910;28;20158;-82
2022/12/01 05:37:50;;;;;;;221.48;95.28;;;5.30;99.90;;;;;;4988923;28;20045;-82
2022/12/01 05:40:16;;;;;;;234.50;97.53;;;5.30;99.90;;;;;;4985273;28;20050;-82
2022/12/01 05:42:42;;;;;;;219.88;97.15;;;5.30;99.90;;;;;;4989092;28;20046;-82
2022/12/01 05:45:08;;;;;;;226.73;98.95;;;5.30;99.90;;;;;;4989543;28;20069;-82
2022/12/01 05:47:33;;;;;;;220.20;99.07;;;5.30;99.90;;;;;;4990044;28;20129;-82
2022/12/01 05:49:59;;;;;;;221.15;94.72;;;5.30;99.90;;;;;;4987118;28;20168;-82
2022/12/01 05:52:24;;;;;;;232.50;96.60;;;5.30;99.90;;;;;;4991692;28;20164;-82
2022/12/01 05:54:50;;;;;;;216.23;96.10;;;5.30;99.90;;;;;;4993245;28;20600;-82
2022/12/01 05:57:15;;;;;;;237.13;100.15;;;5.30;99.90;;;;;;4995865;28;20050;-82
2022/12/01 05:59:41;;;;;;;217.50;98.28;;;5.30;99.90;;;;;;4992684;28;20449;-82
2022/12/01 06:02:09;;;;;;;264.65;102.85;;;5.30;99.90;;;;;;4990540;28;20042;-82
2022/12/01 06:04:35;;;;;;;244.90;99.85;;;5.30;99.90;;;;;;4991769;28;20053;-82
2022/12/01 06:07:01;;;;;;;232.80;98.47;;;5.30;99.90;;;;;;4986675;28;20054;-82
2022/12/01 06:09:26;;;;;;;235.07;95.68;;;5.30;99.90;;;;;;4993395;28;20053;-82
2022/12/01 06:11:52;;;;;;;238.45;96.60;;;5.30;99.90;;;;;;4990562;28;20042;-82
2022/12/01 06:14:18;;;;;;;219.80;95.63;;;5.30;99.90;;;;;;4992841;28;20054;-82
2022/12/01 06:16:44;;;;;;;235.75;99.85;;;5.30;99.90;;;;;;4993360;28;20560;-82
2022/12/01 06:19:10;;;;;;;248.23;100.47;;;5.30;99.90;;;;;;4992266;28;20050;-82
2022/12/01 06:21:35;;;;;;;214.95;94.65;;;5.30;99.90;;;;;;4992600;28;20053;-82
2022/12/01 06:24:02;;;;;;;226.82;98.88;;;5.30;99.90;;;;;;4990342;28;20073;-82
2022/12/01 06:26:28;;;;;;;229.10;95.30;;;5.30;99.90;;;;;;4992308;28;20052;-83
2022/12/01 06:28:55;;;;;;;240.63;97.95;;;5.30;99.90;;;;;;4992482;28;20053;-82
2022/12/01 06:31:21;;;;;;;226.50;96.63;;;5.30;99.90;;;;;;4992232;28;20465;-82
2022/12/01 06:33:47;;;;;;;215.93;95.47;;;5.30;99.90;;;;;;4990853;28;20132;-82
2022/12/01 06:36:13;;;;;;;216.77;93.10;;;5.30;99.90;;;;;;4990682;28;20906;-82
2022/12/01 06:38:39;;;;;;;231.02;98.90;;;5.30;99.90;;;;;;4991716;28;20065;-82
2022/12/01 06:41:05;;;;;;;250.05;98.35;;;5.30;99.90;;;;;;4998259;28;20091;-82
2022/12/01 06:43:31;;;;;;;218.30;96.47;;;5.30;99.90;;;;;;4989878;28;20053;-82
2022/12/01 06:45:56;;;;;;;234.50;97.20;;;5.30;99.90;;;;;;4991428;28;20045;-82
2022/12/01 06:48:22;;;;;;;232.25;95.13;;;5.30;99.90;;;;;;4992044;28;20546;-82
2022/12/01 06:50:48;;;;;;;233.30;99.72;;;5.30;99.90;;;;;;4990655;28;20124;-82
2022/12/01 06:53:14;;;;;;;249.90;94.63;;;5.30;99.90;;;;;;4986322;28;20088;-79
2022/12/01 06:55:39;;;;;;;239.70;98.65;;;5.30;99.90;;;;;;5004527;28;20077;-78
2022/12/01 06:58:05;;;;;;;241.70;97.45;;;5.30;99.90;;;;;;4999255;28;20049;-78
2022/12/01 07:00:31;;;;;;;240.45;98.55;;;5.30;99.90;;;;;;5006811;28;20503;-78
2022/12/01 07:02:56;;;;;;;238.57;101.05;;;5.30;99.90;;;;;;5004047;28;20042;-79
2022/12/01 07:05:22;;;;;;;228.82;98.60;;;5.30;99.90;;;;;;4998510;28;20050;-78
2022/12/01 07:07:48;;;;;;;228.30;95.72;;;5.30;99.90;;;;;;5009256;28;20416;-78
2022/12/01 07:10:13;;;;;;;248.48;99.78;;;5.30;99.90;;;;;;5008058;28;20038;-78
2022/12/01 07:12:39;;;;;;;237.38;101.85;;;5.40;99.90;;;;;;5001508;28;20038;-78
2022/12/01 07:15:07;;;;;;;248.82;100.53;;;5.40;99.90;;;;;;5008684;28;20049;-79
2022/12/01 07:17:33;;;;;;;237.25;97.97;;;5.40;99.90;;;;;;5009013;28;20042;-78
2022/12/01 07:19:59;;;;;;;225.65;96.45;;;5.40;99.90;;;;;;4989793;28;20491;-78
2022/12/01 07:22:26;;;;;;;234.20;101.53;;;5.40;99.90;;;;;;5007499;28;20045;-78
2022/12/01 07:24:52;;;;;;;232.80;98.70;;;5.40;99.90;;;;;;5005221;28;20108;-78
2022/12/01 07:27:19;;;;;;;230.30;93.22;;;5.40;99.90;;;;;;4987254;28;20045;-78
2022/12/01 07:29:44;;;;;;;236.73;95.65;;;5.40;99.90;;;;;;5003930;28;20117;-78
2022/12/01 07:32:10;;;;;;;222.15;97.22;;;5.40;99.90;;;;;;5008557;28;20503;-78
2022/12/01 07:34:36;;;;;;;209.05;91.80;;;5.40;99.90;;;;;;5008753;28;20073;-78
2022/12/01 07:37:01;;;;;;;223.07;94.75;;;5.40;99.90;;;;;;5007638;28;20042;-78
2022/12/01 07:39:27;;;;;;;230.30;95.32;;;5.40;99.90;;;;;;5007250;28;20042;-78
2022/12/01 07:41:53;;;;;;;214.13;89.13;;;5.40;99.90;;;;;;5008590;28;20513;-77
2022/12/01 07:44:19;;;;;;;231.82;94.78;;;5.40;99.90;;;;;;5008532;28;20046;-78
2022/12/01 07:46:45;;;;;;;219.80;95.95;;;5.40;99.90;;;;;;5007907;28;20054;-78
2022/12/01 07:49:13;;;;;;;228.35;96.25;;;5.50;99.90;;;;;;5007166;28;20529;-78
2022/12/01 07:51:39;;;;;;;214.95;90.15;;;5.40;99.90;;;;;;5008583;28;20050;-78
2022/12/01 07:54:06;;;;;;;223.32;94.20;;;5.40;99.90;;;;;;5007294;28;20048;-77
2022/12/01 07:56:32;;;;;;;240.55;95.28;;;5.40;99.90;;;;;;5005612;28;20034;-77
2022/12/01 07:58:59;;;;;;;217.63;91.43;;;5.40;99.90;;;;;;5003187;28;20605;-78
2022/12/01 08:01:25;;;;;;;224.95;94.25;;;5.40;99.90;;;;;;5004568;28;20092;-78
2022/12/01 08:03:53;;;;;;;228.00;90.07;;;5.50;99.90;;;;;;5002277;28;20050;-78
2022/12/01 08:06:19;;;;;;;226.63;91.22;;;5.50;99.90;;;;;;5006473;28;20058;-79
2022/12/01 08:08:45;;;;;;;227.40;94.38;;;5.50;99.90;;;;;;5007741;28;20042;-79
2022/12/01 08:11:13;;;;;;;223.07;91.82;;;5.50;99.90;;;;;;5007764;28;20034;-79
2022/12/01 08:13:41;;;;;;;199.55;89.72;;;5.50;99.90;;;;;;4989721;28;20048;-74
2022/12/01 08:16:09;;;;;;;217.50;90.57;;;5.50;99.90;;;;;;5004656;28;20053;-75
2022/12/01 08:18:37;;;;;;;222.40;91.13;;;5.50;99.90;;;;;;4990584;28;20061;-73
2022/12/01 08:21:04;;;;;;;102.55;47.28;;;5.50;99.90;;;;;;4981888;28;20410;-74
2022/12/01 08:23:29;;;;;;;213.10;89.47;;;5.50;99.90;;;;;;5000024;28;20050;-75
2022/12/01 08:25:59;;;;;;;220.35;88.22;;;5.50;99.90;;;;;;4984849;28;20502;-75
2022/12/01 08:28:27;;;;;;;207.50;87.53;;;5.50;99.90;;;;;;5008885;28;20034;-75
2022/12/01 08:30:53;;;;;;;210.05;85.75;;;5.60;99.90;;;;;;4989098;28;20068;-76
2022/12/01 08:33:19;;;;;;;203.85;85.38;;;5.60;99.90;;;;;;4986057;28;20053;-76
2022/12/01 08:35:44;;;;;;;194.85;86.63;;;5.60;99.90;;;;;;4985888;28;20065;-78
2022/12/01 08:38:11;;;;;;;217.13;91.28;;;5.60;99.90;;;;;;4988853;28;20041;-76
2022/12/01 08:40:37;;;;;;;197.80;87.18;;;5.70;99.90;;;;;;4989880;28;20474;-76
2022/12/01 08:43:03;;;;;;;201.70;86.10;;;5.70;99.90;;;;;;4989667;28;20117;-77
2022/12/01 08:45:28;;;;;;;215.30;87.60;;;5.70;99.90;;;;;;4990582;28;20053;-77
2022/12/01 08:47:57;;;;;;;212.85;85.30;;;5.70;99.90;;;;;;4989877;28;20054;-76
2022/12/01 08:50:26;;;;;;;193.27;85.65;;;5.70;99.90;;;;;;4989504;28;20450;-76
2022/12/01 08:52:52;;;;;;;183.82;80.65;;;5.70;99.90;;;;;;4989839;28;20518;-77
2022/12/01 08:55:19;;;;;;;203.80;85.53;;;5.70;99.90;;;;;;4989836;28;20042;-76
2022/12/01 08:57:44;;;;;;;187.57;81.82;;;5.70;99.90;;;;;;4990017;28;20411;-76
2022/12/01 09:00:11;;;;;;;199.65;85.10;;;5.70;99.90;;;;;;4989874;28;20041;-76
2022/12/01 09:02:37;;;;;;;190.45;81.97;;;5.70;99.90;;;;;;4989121;28;20119;-77
2022/12/01 09:05:03;;;;;;;182.57;81.18;;;5.70;99.90;;;;;;5005160;28;20469;-77
2022/12/01 09:07:29;;;;;;;181.38;79.03;;;5.70;99.90;;;;;;4990399;28;20053;-77
2022/12/01 09:09:55;;;;;;;193.38;81.45;;;5.70;99.90;;;;;;4988325;28;20514;-76
2022/12/01 09:12:21;;;;;;;183.98;80.30;;;5.80;99.90;;;;;;4989925;28;20042;-76
2022/12/01 09:14:48;;;;;;;179.70;80.07;;;5.80;99.90;;;;;;4989213;28;20041;-76
2022/12/01 09:17:15;;;;;;;197.07;85.00;;;5.80;99.90;;;;;;4989773;28;20116;-76
2022/12/01 09:19:41;;;;;;;184.20;81.78;;;5.80;99.90;;;;;;4973159;28;20060;-76
2022/12/01 09:22:08;;;;;;;174.05;77.18;;;5.80;99.90;;;;;;4990018;28;20073;-76
2022/12/01 09:24:33;;;;;;;188.90;83.95;;;5.80;99.90;;;;;;4988751;28;20132;-76
2022/12/01 09:26:59;;;;;;;198.90;81.47;;;5.80;99.90;;;;;;4993098;28;20958;-76
2022/12/01 09:29:25;;;;;;;172.10;76.53;;;5.80;99.90;;;;;;4992712;28;20050;-77
2022/12/01 09:31:55;;;;;;;171.93;75.75;;;5.90;99.90;;;;;;4993507;28;20060;-77
2022/12/01 09:34:20;;;;;;;175.02;77.65;;;5.90;99.90;;;;;;4993120;28;20108;-76
2022/12/01 09:36:47;;;;;;;161.52;76.40;;;5.90;99.90;;;;;;4977523;28;20074;-76
2022/12/01 09:39:15;;;;;;;178.75;80.90;;;5.90;99.90;;;;;;4991871;28;20046;-76
2022/12/01 09:41:58;;;;;;;;;;;5.90;99.90;;;;;;4993085;28;20077;-77
2022/12/01 09:44:24;;;;;;;172.85;76.82;;;5.90;99.90;;;;;;5009157;28;19932;-77
2022/12/01 09:46:55;;;;;;;168.30;76.85;;;5.90;99.90;;;;;;4993210;28;20049;-77
2022/12/01 09:49:35;;;;;;;181.65;79.60;;;5.90;99.90;;;;;;4993627;28;20053;-76
2022/12/01 09:52:01;;;;;;;171.38;76.43;;;6.00;99.90;;;;;;4992780;28;20506;-76
2022/12/01 09:54:29;;;;;;;175.65;75.63;;;6.00;99.90;;;;;;4992292;28;20045;-77
2022/12/01 09:56:58;;;;;;;162.70;74.38;;;6.00;99.90;;;;;;4992938;28;20046;-77
2022/12/01 09:59:29;;;;;;;185.48;79.65;;;6.00;99.90;;;;;;4987762;28;20050;-77
2022/12/01 10:01:59;;;;;;;173.00;76.95;;;6.00;99.90;;;;;;4993739;28;20049;-76
2022/12/01 10:04:37;;;;;;;172.32;74.88;;;6.00;99.90;;;;;;4990397;28;20148;-77
2022/12/01 10:07:28;;;;;;;165.43;74.85;;;6.00;99.90;;;;;;4992323;28;20058;-77
2022/12/01 10:10:13;;;;;;;166.50;74.35;;;6.00;99.90;;;;;;4985285;28;20062;-77
2022/12/01 10:12:45;;;;;;;159.45;72.35;;;6.00;99.90;;;;;;4993276;28;20068;-77
2022/12/01 10:16:03;;;;;;;156.25;70.43;;;6.00;99.90;;;;;;4995971;28;20391;-77
2022/12/01 10:18:57;;;;;;;167.07;74.75;;;6.10;99.90;;;;;;4985232;28;20068;-77
2022/12/01 10:21:48;;;;;;;181.60;74.47;;;6.00;99.90;;;;;;4992350;28;20077;-77
2022/12/01 10:24:32;;;;;;;143.30;68.53;;;6.10;99.90;;;;;;4992374;28;20058;-77
2022/12/01 10:27:23;;;;;;;157.52;69.68;;;6.00;99.90;;;;;;5007394;28;20046;-77
2022/12/01 10:29:54;;;;;;;156.57;72.10;;;6.00;99.90;;;;;;4992226;28;20056;-77
2022/12/01 10:32:33;;;;;;;184.15;72.18;;;6.00;99.90;;;;;;4992176;28;20410;-77
2022/12/01 10:35:00;;;;;;;153.27;69.63;;;6.00;99.90;;;;;;4991733;28;20499;-77
2022/12/01 10:37:28;;;;;;;155.68;72.18;;;6.00;99.90;;;;;;4991963;28;20222;-77
2022/12/01 10:39:56;;;;;;;;;;;6.00;99.90;;;;;;4992555;28;20064;-77
2022/12/01 10:42:25;;;;;;;154.60;69.03;;;6.00;99.90;;;;;;4992141;28;19930;-76
2022/12/01 10:44:53;;;;;;;;;;;6.00;99.90;;;;;;4992371;28;20049;-77
2022/12/01 10:47:21;;;;;;;154.50;73.35;;;6.00;99.90;;;;;;4975576;28;19929;-76
2022/12/01 10:49:47;;;;;;;162.15;71.43;;;6.00;99.90;;;;;;4991808;28;20046;-77
2022/12/01 10:52:38;;;;;;;152.60;71.32;;;6.00;99.90;;;;;;4991687;28;20124;-77
2022/12/01 10:55:23;;;;;;;163.73;69.50;;;6.10;99.90;;;;;;4981652;28;20107;-77
2022/12/01 10:57:51;;;;;;;166.00;73.55;;;6.10;99.90;;;;;;4990030;28;20558;-77
2022/12/01 11:00:25;;;;;;;158.10;72.25;;;6.10;99.90;;;;;;5008187;28;20045;-77
2022/12/01 11:02:51;;;;;;;150.13;72.25;;;6.10;99.90;;;;;;4990976;28;20092;-77
2022/12/01 11:05:31;;;;;;;150.80;73.50;;;6.10;99.90;;;;;;4990944;28;20458;-77
2022/12/01 11:07:57;;;;;;;151.32;70.25;;;6.20;99.90;;;;;;5008183;28;20073;-77
2022/12/01 11:10:31;;;;;;;144.93;69.32;;;6.20;99.90;;;;;;5007636;28;20107;-77
2022/12/01 11:13:27;;;;;;;143.60;66.90;;;6.20;99.90;;;;;;4990336;28;20443;-77
2022/12/01 11:16:03;;;;;;;146.38;67.88;;;6.20;99.90;;;;;;5000512;28;20052;-77
2022/12/01 11:18:37;;;;;;;148.27;65.15;;;6.20;99.90;;;;;;4991633;28;20107;-77
2022/12/01 11:21:26;;;;;;;147.73;67.22;;;6.20;99.90;;;;;;4990988;28;20077;-77
2022/12/01 11:23:54;;;;;;;150.43;67.53;;;6.20;99.90;;;;;;4980242;28;20137;-77
2022/12/01 11:26:24;;;;;;;134.65;66.07;;;6.20;99.90;;;;;;4989587;28;20060;-77
2022/12/01 11:29:15;;;;;;;148.40;68.55;;;6.20;99.90;;;;;;4991518;28;20068;-77
2022/12/01 11:31:45;;;;;;;134.10;62.55;;;6.20;99.90;;;;;;4981241;28;20180;-77
2022/12/01 11:34:25;;;;;;;136.50;67.22;;;6.20;99.90;;;;;;4991525;28;20056;-77
2022/12/01 11:36:55;;;;;;;135.52;64.88;;;6.20;99.90;;;;;;4991087;28;20503;-77
2022/12/01 11:39:31;;;;;;;107.82;56.45;;;6.20;99.90;;;;;;4990873;28;20050;-77
2022/12/01 11:42:14;;;;;;;117.57;58.63;;;6.30;99.90;;;;;;4990905;28;20054;-77
2022/12/01 11:44:49;;;;;;;117.78;59.63;;;6.20;99.90;;;;;;4978489;28;20045;-77
2022/12/01 11:47:17;;;;;;;127.90;61.08;;;6.20;99.90;;;;;;4991156;28;20049;-77
2022/12/01 11:49:46;;;;;;;130.10;60.45;;;6.20;99.90;;;;;;4989404;28;20053;-77
2022/12/01 11:52:29;;;;;;;121.00;59.67;;;6.30;99.90;;;;;;4990803;28;20053;-77
2022/12/01 11:55:10;;;;;;;131.73;59.80;;;6.30;99.90;;;;;;4985670;28;20088;-77
2022/12/01 11:57:41;;;;;;;123.78;59.03;;;6.30;99.90;;;;;;4990440;28;20106;-77
2022/12/01 12:00:16;;;;;;;110.13;58.80;;;6.20;99.90;;;;;;4990093;28;20136;-77
2022/12/01 12:02:48;;;;;;;104.22;54.25;;;6.30;99.90;;;;;;4990568;28;20049;-77
2022/12/01 12:05:48;;;;;;;111.63;56.50;;;6.20;99.90;;;;;;4995780;28;20046;-77
2022/12/01 12:08:44;;;;;;;117.60;58.40;;;6.30;99.90;;;;;;4990462;28;20049;-77
2022/12/01 12:11:09;;;;;;;118.75;60.20;;;6.20;99.90;;;;;;5001970;28;20053;-77
2022/12/01 12:14:12;;;;;;;112.57;55.13;;;6.20;99.90;;;;;;4990584;28;20057;-77
2022/12/01 12:17:03;;;;;;;110.40;55.13;;;6.20;99.90;;;;;;4990720;28;20054;-77
2022/12/01 12:19:47;;;;;;;114.30;55.50;;;6.30;99.90;;;;;;4990042;28;20050;-77
2022/12/01 12:22:53;;;;;;;98.03;54.75;;;6.30;99.90;;;;;;4988782;28;20077;-77
2022/12/01 12:25:41;;;;;;;117.05;55.63;;;6.30;99.90;;;;;;4952373;28;20058;-77
2022/12/01 12:28:40;;;;;;;103.63;55.70;;;6.30;99.90;;;;;;4990125;28;20053;-77
2022/12/01 12:31:06;;;;;;;123.80;59.75;;;6.30;99.90;;;;;;4990641;28;20387;-77
2022/12/01 12:33:58;;;;;;;107.88;56.75;;;6.20;99.90;;;;;;4990652;28;20053;-77
2022/12/01 12:36:32;;;;;;;116.55;56.90;;;6.30;99.90;;;;;;4989786;28;20499;-77
2022/12/01 12:39:35;;;;;;;100.60;55.53;;;6.30;99.90;;;;;;4976912;28;20414;-77
2022/12/01 12:42:12;;;;;;;105.35;54.60;;;6.30;99.90;;;;;;4989885;28;20053;-77
2022/12/01 12:45:22;;;;;;;118.70;59.92;;;6.20;99.90;;;;;;5007931;28;20093;-77
2022/12/01 12:48:06;;;;;;;102.85;54.08;;;6.30;99.90;;;;;;4930676;29;20047;-77
2022/12/01 12:51:13;;;;;;;110.07;55.47;;;6.30;99.90;;;;;;4982000;28;20518;-77
2022/12/01 12:54:04;;;;;;;106.60;54.80;;;6.30;99.90;;;;;;4981766;28;20052;-77
2022/12/01 12:56:31;;;;;;;95.68;52.67;;;6.30;99.90;;;;;;5003868;28;20049;-77